Time;durP1;ratioP1;P1;durP2;ratioP2;P2;SDS_P1;SDS_P2;PMS_P1;PMS_P2;Temp;Humidity;BMP_temperature;BMP_pressure;BME280_temperature;BME280_humidity;BME280_pressure;Samples;Min_cycle;Max_cycle;Signal;HPM_P1;HPM_P2
2023/06/07 00:01:56;;;;;;;16.35;12.43;;;;;;;;;;5017468;28;20020;-62
2023/06/07 00:04:22;;;;;;;16.07;12.23;;;;;;;;;;5024346;28;20473;-62
2023/06/07 00:06:47;;;;;;;17.60;13.67;;;;;;;;;;5020975;28;20032;-62
2023/06/07 00:09:12;;;;;;;15.57;11.50;;;;;;;;;;5017971;28;20033;-61
2023/06/07 00:11:37;;;;;;;16.98;12.88;;;;;;;;;;5032947;28;20113;-61
2023/06/07 00:14:03;;;;;;;19.03;13.40;;;;;;;;;;5031894;28;20013;-62
2023/06/07 00:16:28;;;;;;;16.52;12.48;;;;;;;;;;5021168;28;20033;-62
2023/06/07 00:18:53;;;;;;;18.88;14.35;;;;;;;;;;5021753;28;20115;-61
2023/06/07 00:21:20;;;;;;;20.48;14.98;;;;;;;;;;5021381;28;20022;-61
2023/06/07 00:23:46;;;;;;;17.67;13.45;;;;;;;;;;5023775;28;20036;-61
2023/06/07 00:26:11;;;;;;;18.00;13.35;;;;;;;;;;5020008;28;20018;-62
2023/06/07 00:28:36;;;;;;;16.80;13.15;;;;;;;;;;5026868;28;20029;-62
2023/06/07 00:31:01;;;;;;;16.50;13.10;;;;;;;;;;5023088;28;20547;-61
2023/06/07 00:33:26;;;;;;;19.23;14.57;;;;;;;;;;5043160;28;20057;-62
2023/06/07 00:35:51;;;;;;;17.07;14.00;;;;;;;;;;5021085;28;20021;-61
2023/06/07 00:38:16;;;;;;;19.85;15.43;;;;;;;;;;5022281;28;20497;-62
2023/06/07 00:40:42;;;;;;;17.25;13.23;;;;;;;;;;5014786;28;20022;-62
2023/06/07 00:43:07;;;;;;;17.65;13.75;;;;;;;;;;5016735;28;20017;-62
2023/06/07 00:45:32;;;;;;;16.88;14.07;;;;;;;;;;5027142;28;20030;-62
2023/06/07 00:47:57;;;;;;;16.15;12.68;;;;;;;;;;5019742;28;20489;-62
2023/06/07 00:50:22;;;;;;;18.23;13.57;;;;;;;;;;5027310;28;20119;-62
2023/06/07 00:52:48;;;;;;;15.30;12.43;;;;;;;;;;5032842;28;20056;-62
2023/06/07 00:55:13;;;;;;;17.80;12.30;;;;;;;;;;5025474;28;20396;-62
2023/06/07 00:57:40;;;;;;;16.77;13.10;;;;;;;;;;5016545;28;20485;-62
2023/06/07 01:00:06;;;;;;;16.30;12.45;;;;;;;;;;5025227;28;20022;-61
2023/06/07 01:02:33;;;;;;;16.05;12.20;;;;;;;;;;5022674;28;20071;-61
2023/06/07 01:05:02;;;;;;;15.25;13.00;;;;;;;;;;5019060;28;20026;-61
2023/06/07 01:07:27;;;;;;;18.55;14.25;;;;;;;;;;5020213;28;20022;-61
2023/06/07 01:09:53;;;;;;;21.10;15.43;;;;;;;;;;5022713;28;20539;-61
2023/06/07 01:12:19;;;;;;;19.23;15.32;;;;;;;;;;5020585;28;20064;-62
2023/06/07 01:14:45;;;;;;;19.13;13.95;;;;;;;;;;5020522;28;20029;-61
2023/06/07 01:17:12;;;;;;;16.42;13.32;;;;;;;;;;5020187;28;20024;-62
2023/06/07 01:19:39;;;;;;;18.23;15.07;;;;;;;;;;5027056;28;20036;-62
2023/06/07 01:22:07;;;;;;;;;;;;;;;;;;5024954;28;20476;-62
2023/06/07 01:24:35;;;;;;;17.55;13.65;;;;;;;;;;5025963;28;20376;-62
2023/06/07 01:27:02;;;;;;;19.55;14.82;;;;;;;;;;5027669;28;20030;-62
2023/06/07 01:29:28;;;;;;;19.35;15.45;;;;;;;;;;5027274;28;20022;-62
2023/06/07 01:31:54;;;;;;;20.70;15.10;;;;;;;;;;5021364;28;20014;-62
2023/06/07 01:34:19;;;;;;;19.33;15.30;;;;;;;;;;5022511;28;20088;-62
2023/06/07 01:36:45;;;;;;;20.52;14.48;;;;;;;;;;5028368;28;20539;-61
2023/06/07 01:39:10;;;;;;;19.70;14.73;;;;;;;;;;5018109;28;20478;-62
2023/06/07 01:41:36;;;;;;;19.13;13.60;;;;;;;;;;5025097;28;20052;-62
2023/06/07 01:44:01;;;;;;;16.25;12.95;;;;;;;;;;5022171;28;20021;-62
2023/06/07 01:46:27;;;;;;;18.90;13.97;;;;;;;;;;5028420;28;20047;-62
2023/06/07 01:48:52;;;;;;;19.08;15.05;;;;;;;;;;5017429;28;20113;-62
2023/06/07 01:51:17;;;;;;;18.50;14.83;;;;;;;;;;5017741;28;20045;-62
2023/06/07 01:53:43;;;;;;;18.73;14.87;;;;;;;;;;5034292;28;20020;-62
2023/06/07 01:56:15;;;;;;;19.98;14.15;;;;;;;;;;5022035;28;20554;-61
2023/06/07 01:58:48;;;;;;;24.23;17.80;;;;;;;;;;5026607;28;20029;-62
2023/06/07 02:01:33;;;;;;;19.77;15.43;;;;;;;;;;5021254;28;20508;-62
2023/06/07 02:04:00;;;;;;;19.25;15.05;;;;;;;;;;5019003;28;20029;-61
2023/06/07 02:06:30;;;;;;;18.65;14.30;;;;;;;;;;5016860;28;20075;-62
2023/06/07 02:08:56;;;;;;;20.70;16.60;;;;;;;;;;5022471;28;20025;-62
2023/06/07 02:11:22;;;;;;;19.08;14.98;;;;;;;;;;5018460;28;20010;-61
2023/06/07 02:13:49;;;;;;;20.58;15.50;;;;;;;;;;5027299;28;20087;-61
2023/06/07 02:16:14;;;;;;;21.55;15.35;;;;;;;;;;5018811;28;20088;-61
2023/06/07 02:18:42;;;;;;;21.63;17.23;;;;;;;;;;5019642;28;20117;-62
2023/06/07 02:21:08;;;;;;;19.17;15.38;;;;;;;;;;5015294;28;20026;-62
2023/06/07 02:23:34;;;;;;;21.80;16.70;;;;;;;;;;5022732;28;20095;-62
2023/06/07 02:25:59;;;;;;;22.00;16.08;;;;;;;;;;5016708;28;20025;-61
2023/06/07 02:28:24;;;;;;;23.42;18.30;;;;;;;;;;5019410;28;20090;-61
2023/06/07 02:30:51;;;;;;;22.25;17.65;;;;;;;;;;5025295;28;20043;-62
2023/06/07 02:33:21;;;;;;;20.13;16.58;;;;;;;;;;5020676;28;20556;-61
2023/06/07 02:35:46;;;;;;;23.90;17.58;;;;;;;;;;5025079;28;20068;-62
2023/06/07 02:38:12;;;;;;;24.25;17.55;;;;;;;;;;5022719;28;20057;-62
2023/06/07 02:40:37;;;;;;;22.38;17.92;;;;;;;;;;5020978;28;20025;-62
2023/06/07 02:43:02;;;;;;;20.90;16.00;;;;;;;;;;5021629;28;20016;-62
2023/06/07 02:45:27;;;;;;;21.83;16.67;;;;;;;;;;5023646;28;20038;-62
2023/06/07 02:47:54;;;;;;;19.77;15.55;;;;;;;;;;5027908;28;20465;-61
2023/06/07 02:50:21;;;;;;;20.90;17.23;;;;;;;;;;5025369;28;20025;-61
2023/06/07 02:52:46;;;;;;;20.33;15.90;;;;;;;;;;5013046;28;20021;-61
2023/06/07 02:55:11;;;;;;;21.40;16.95;;;;;;;;;;5017061;28;20417;-61
2023/06/07 02:57:37;;;;;;;24.67;17.67;;;;;;;;;;5011717;28;20076;-61
2023/06/07 03:00:10;;;;;;;22.60;18.00;;;;;;;;;;5010668;28;20010;-61
2023/06/07 03:02:36;;;;;;;24.40;18.20;;;;;;;;;;5010513;28;20022;-61
2023/06/07 03:05:01;;;;;;;22.60;17.95;;;;;;;;;;5015152;28;20127;-61
2023/06/07 03:07:27;;;;;;;25.88;18.33;;;;;;;;;;5013812;28;20021;-61
2023/06/07 03:09:52;;;;;;;21.03;15.27;;;;;;;;;;5010899;28;20014;-61
2023/06/07 03:12:17;;;;;;;24.50;18.58;;;;;;;;;;5017031;28;20487;-62
2023/06/07 03:14:42;;;;;;;20.35;16.13;;;;;;;;;;5026659;28;20030;-61
2023/06/07 03:17:08;;;;;;;25.23;17.43;;;;;;;;;;5025200;28;20037;-61
2023/06/07 03:19:33;;;;;;;22.83;16.38;;;;;;;;;;5032826;28;20433;-61
2023/06/07 03:21:58;;;;;;;23.33;16.98;;;;;;;;;;5023489;28;20082;-61
2023/06/07 03:24:24;;;;;;;20.57;15.67;;;;;;;;;;5027766;28;20029;-61
2023/06/07 03:26:50;;;;;;;20.75;15.63;;;;;;;;;;5026700;28;20108;-62
2023/06/07 03:29:15;;;;;;;18.15;14.68;;;;;;;;;;5036522;28;20013;-62
2023/06/07 03:31:40;;;;;;;19.27;14.50;;;;;;;;;;5029966;28;20056;-62
2023/06/07 03:34:06;;;;;;;20.85;16.73;;;;;;;;;;5021819;28;20470;-61
2023/06/07 03:36:31;;;;;;;22.00;16.60;;;;;;;;;;5016205;28;20091;-61
2023/06/07 03:38:56;;;;;;;17.95;14.82;;;;;;;;;;5016110;28;20062;-60
2023/06/07 03:41:22;;;;;;;24.95;17.17;;;;;;;;;;5010083;28;20093;-63
2023/06/07 03:43:47;;;;;;;19.83;14.03;;;;;;;;;;5013269;28;20022;-60
2023/06/07 03:46:12;;;;;;;17.73;14.40;;;;;;;;;;5013920;28;20640;-61
2023/06/07 03:48:38;;;;;;;22.05;16.35;;;;;;;;;;5021614;28;20021;-61
2023/06/07 03:51:03;;;;;;;22.40;16.90;;;;;;;;;;5013337;28;20037;-62
2023/06/07 03:53:28;;;;;;;19.67;14.93;;;;;;;;;;5013740;28;20021;-60
2023/06/07 03:55:53;;;;;;;18.60;14.90;;;;;;;;;;5014050;28;20103;-61
2023/06/07 03:58:18;;;;;;;21.23;15.35;;;;;;;;;;5028947;28;20370;-61
2023/06/07 04:00:50;;;;;;;16.95;14.02;;;;;;;;;;5016249;28;20433;-62
2023/06/07 04:03:15;;;;;;;20.02;15.10;;;;;;;;;;5020186;28;20025;-61
2023/06/07 04:05:40;;;;;;;18.80;14.57;;;;;;;;;;5017384;28;20025;-61
2023/06/07 04:08:06;;;;;;;19.40;14.27;;;;;;;;;;5024494;28;20430;-61
2023/06/07 04:10:31;;;;;;;17.90;13.88;;;;;;;;;;5028524;28;20823;-61
2023/06/07 04:12:56;;;;;;;17.73;12.57;;;;;;;;;;5026902;28;20110;-61
2023/06/07 04:15:21;;;;;;;16.83;12.80;;;;;;;;;;5024591;28;20460;-61
2023/06/07 04:17:47;;;;;;;15.93;12.38;;;;;;;;;;5025466;28;20025;-61
2023/06/07 04:20:14;;;;;;;20.05;14.30;;;;;;;;;;5019442;28;20500;-62
2023/06/07 04:22:39;;;;;;;17.77;13.43;;;;;;;;;;5013127;28;20117;-61
2023/06/07 04:25:05;;;;;;;18.17;13.52;;;;;;;;;;5021098;28;20104;-61
2023/06/07 04:27:31;;;;;;;18.85;13.32;;;;;;;;;;5018327;28;20026;-61
2023/06/07 04:29:56;;;;;;;18.27;13.50;;;;;;;;;;5023081;28;20485;-62
2023/06/07 04:32:21;;;;;;;14.53;12.23;;;;;;;;;;5019493;28;20515;-61
2023/06/07 04:34:47;;;;;;;18.48;14.07;;;;;;;;;;5014899;28;20026;-61
2023/06/07 04:37:12;;;;;;;18.27;13.73;;;;;;;;;;5014949;28;20022;-61
2023/06/07 04:39:40;;;;;;;15.53;12.37;;;;;;;;;;5031343;28;20112;-61
2023/06/07 04:42:06;;;;;;;17.70;13.57;;;;;;;;;;5021392;28;20101;-61
2023/06/07 04:44:31;;;;;;;19.23;15.02;;;;;;;;;;5022740;28;20479;-61
2023/06/07 04:46:57;;;;;;;16.73;13.55;;;;;;;;;;5028219;28;20025;-61
2023/06/07 04:49:23;;;;;;;15.10;12.23;;;;;;;;;;5029021;28;20021;-61
2023/06/07 04:51:48;;;;;;;16.60;12.68;;;;;;;;;;5017589;28;20022;-61
2023/06/07 04:54:16;;;;;;;14.77;11.70;;;;;;;;;;5029063;28;20029;-62
2023/06/07 04:56:41;;;;;;;17.30;12.20;;;;;;;;;;5020858;28;20032;-62
2023/06/07 04:59:08;;;;;;;16.90;12.80;;;;;;;;;;5023415;28;20025;-63
2023/06/07 05:01:33;;;;;;;14.30;11.88;;;;;;;;;;5023477;28;20036;-63
2023/06/07 05:04:00;;;;;;;16.93;12.93;;;;;;;;;;5016310;28;20033;-63
2023/06/07 05:06:25;;;;;;;15.70;11.60;;;;;;;;;;5016299;28;20458;-62
2023/06/07 05:08:50;;;;;;;16.27;12.47;;;;;;;;;;5014164;28;20112;-62
2023/06/07 05:11:15;;;;;;;15.55;11.40;;;;;;;;;;5023739;28;20022;-62
2023/06/07 05:13:41;;;;;;;14.13;10.73;;;;;;;;;;4984543;28;20044;-62
2023/06/07 05:16:11;;;;;;;15.03;11.03;;;;;;;;;;5006867;28;20111;-62
2023/06/07 05:18:39;;;;;;;16.65;12.90;;;;;;;;;;5028198;28;20448;-62
2023/06/07 05:21:04;;;;;;;15.95;11.30;;;;;;;;;;5023652;28;20037;-62
2023/06/07 05:23:29;;;;;;;13.43;10.97;;;;;;;;;;5028483;28;20284;-62
2023/06/07 05:25:54;;;;;;;14.00;10.77;;;;;;;;;;5016496;28;20037;-62
2023/06/07 05:28:20;;;;;;;14.13;10.83;;;;;;;;;;5021067;28;20049;-62
2023/06/07 05:30:45;;;;;;;14.25;10.20;;;;;;;;;;5023806;28;20052;-62
2023/06/07 05:33:11;;;;;;;14.68;10.60;;;;;;;;;;5017889;28;20018;-62
2023/06/07 05:35:36;;;;;;;15.77;12.03;;;;;;;;;;5021974;28;20022;-62
2023/06/07 05:38:01;;;;;;;15.73;11.73;;;;;;;;;;5024242;28;20033;-62
2023/06/07 05:40:26;;;;;;;15.15;10.75;;;;;;;;;;5031166;28;20026;-61
2023/06/07 05:42:51;;;;;;;16.10;11.40;;;;;;;;;;5023121;28;20013;-60
2023/06/07 05:45:16;;;;;;;14.73;11.60;;;;;;;;;;5025997;28;20021;-61
2023/06/07 05:47:43;;;;;;;13.80;10.33;;;;;;;;;;5029181;28;20033;-63
2023/06/07 05:50:10;;;;;;;12.90;10.30;;;;;;;;;;5024561;28;20020;-63
2023/06/07 05:52:35;;;;;;;;;;;;;;;;;;5026709;28;20033;-62
2023/06/07 05:55:01;;;;;;;14.48;10.57;;;;;;;;;;5022341;28;19913;-63
2023/06/07 05:57:26;;;;;;;14.80;10.10;;;;;;;;;;5032161;28;20025;-62
2023/06/07 05:59:51;;;;;;;15.73;10.70;;;;;;;;;;5017127;28;20021;-63
2023/06/07 06:02:16;;;;;;;18.63;11.93;;;;;;;;;;5017079;28;20025;-62
2023/06/07 06:04:41;;;;;;;16.83;12.47;;;;;;;;;;5025350;28;20044;-62
2023/06/07 06:07:06;;;;;;;15.33;10.93;;;;;;;;;;5018038;28;20029;-63
2023/06/07 06:09:32;;;;;;;14.85;11.00;;;;;;;;;;5022314;28;20075;-61
2023/06/07 06:11:59;;;;;;;15.67;10.77;;;;;;;;;;5018855;28;20112;-61
2023/06/07 06:14:25;;;;;;;14.93;10.32;;;;;;;;;;5018680;28;20581;-61
2023/06/07 06:16:50;;;;;;;14.02;10.63;;;;;;;;;;5039232;28;20608;-61
2023/06/07 06:19:16;;;;;;;13.65;10.15;;;;;;;;;;5027878;28;20017;-61
2023/06/07 06:21:41;;;;;;;14.45;10.20;;;;;;;;;;5025206;28;20163;-61
2023/06/07 06:24:06;;;;;;;15.60;10.63;;;;;;;;;;5022863;28;20032;-62
2023/06/07 06:26:31;;;;;;;12.93;9.15;;;;;;;;;;5034057;28;20463;-63
2023/06/07 06:28:58;;;;;;;13.57;10.50;;;;;;;;;;5020864;28;20370;-63
2023/06/07 06:31:23;;;;;;;15.10;9.55;;;;;;;;;;5022848;28;20041;-63
2023/06/07 06:33:48;;;;;;;12.97;9.13;;;;;;;;;;5025660;28;20018;-62
2023/06/07 06:36:13;;;;;;;11.27;8.93;;;;;;;;;;5015537;28;20120;-60
2023/06/07 06:38:38;;;;;;;10.83;8.77;;;;;;;;;;5032827;28;20017;-63
2023/06/07 06:41:04;;;;;;;12.07;9.07;;;;;;;;;;5029542;28;20029;-62
2023/06/07 06:43:29;;;;;;;14.85;9.30;;;;;;;;;;5032835;28;20350;-62
2023/06/07 06:45:54;;;;;;;12.27;9.13;;;;;;;;;;5024854;28;20018;-63
2023/06/07 06:48:19;;;;;;;12.20;8.20;;;;;;;;;;5026305;28;20103;-61
2023/06/07 06:50:46;;;;;;;12.57;8.82;;;;;;;;;;5024555;28;20128;-61
2023/06/07 06:53:12;;;;;;;15.23;9.45;;;;;;;;;;5019579;28;20025;-61
2023/06/07 06:55:37;;;;;;;11.97;8.67;;;;;;;;;;5014828;28;20030;-61
2023/06/07 06:58:02;;;;;;;11.90;9.13;;;;;;;;;;5014148;28;20459;-62
2023/06/07 07:00:27;;;;;;;11.60;9.02;;;;;;;;;;5024864;28;20036;-62
2023/06/07 07:02:52;;;;;;;12.10;9.60;;;;;;;;;;5019374;28;20473;-62
2023/06/07 07:05:17;;;;;;;11.47;9.57;;;;;;;;;;5012243;28;20030;-62
2023/06/07 07:07:42;;;;;;;11.60;8.07;;;;;;;;;;5024359;28;20026;-62
2023/06/07 07:10:08;;;;;;;12.15;9.85;;;;;;;;;;5032040;28;20009;-62
2023/06/07 07:12:35;;;;;;;12.30;9.90;;;;;;;;;;5025895;28;20033;-62
2023/06/07 07:15:00;;;;;;;14.20;10.25;;;;;;;;;;5028267;28;20033;-62
2023/06/07 07:17:25;;;;;;;12.00;8.45;;;;;;;;;;5026536;28;20032;-62
2023/06/07 07:19:51;;;;;;;13.53;10.23;;;;;;;;;;5032835;28;20489;-62
2023/06/07 07:22:16;;;;;;;13.37;9.37;;;;;;;;;;5027201;28;20017;-62
2023/06/07 07:24:41;;;;;;;15.38;10.45;;;;;;;;;;5032638;28;20087;-63
2023/06/07 07:27:09;;;;;;;14.27;10.25;;;;;;;;;;5033235;28;20075;-62
2023/06/07 07:29:34;;;;;;;16.73;10.75;;;;;;;;;;5021979;28;20060;-62
2023/06/07 07:31:59;;;;;;;13.55;9.30;;;;;;;;;;5028493;28;20021;-62
2023/06/07 07:34:25;;;;;;;12.50;9.73;;;;;;;;;;5031823;28;20056;-62
2023/06/07 07:36:50;;;;;;;15.20;10.70;;;;;;;;;;5029758;28;20021;-63
2023/06/07 07:39:16;;;;;;;15.40;10.38;;;;;;;;;;5028688;28;20017;-63
2023/06/07 07:41:41;;;;;;;12.60;9.70;;;;;;;;;;5033679;28;20017;-61
2023/06/07 07:44:07;;;;;;;13.07;9.23;;;;;;;;;;5032642;28;20029;-61
2023/06/07 07:46:32;;;;;;;13.65;9.88;;;;;;;;;;5032849;28;20083;-62
2023/06/07 07:48:57;;;;;;;13.68;8.27;;;;;;;;;;5017544;28;20014;-63
2023/06/07 07:51:22;;;;;;;12.97;8.57;;;;;;;;;;5022352;28;20022;-62
2023/06/07 07:53:48;;;;;;;13.43;9.10;;;;;;;;;;5026989;28;20041;-62
2023/06/07 07:56:13;;;;;;;11.90;8.95;;;;;;;;;;5029656;28;20041;-62
2023/06/07 07:58:38;;;;;;;13.10;8.70;;;;;;;;;;5032533;28;20048;-62
2023/06/07 08:01:04;;;;;;;11.73;9.25;;;;;;;;;;5024639;28;20121;-62
2023/06/07 08:03:29;;;;;;;11.57;9.10;;;;;;;;;;5021107;28;20125;-62
2023/06/07 08:05:55;;;;;;;10.57;8.35;;;;;;;;;;5012623;28;20034;-62
2023/06/07 08:08:20;;;;;;;12.53;8.07;;;;;;;;;;5015060;28;20553;-62
2023/06/07 08:10:46;;;;;;;13.18;9.57;;;;;;;;;;5026071;28;20032;-62
2023/06/07 08:13:11;;;;;;;13.93;9.40;;;;;;;;;;5028298;28;20485;-62
2023/06/07 08:15:36;;;;;;;14.25;9.38;;;;;;;;;;5027223;28;20109;-61
2023/06/07 08:18:01;;;;;;;11.65;9.32;;;;;;;;;;5032368;28;20068;-62
2023/06/07 08:20:27;;;;;;;12.20;9.50;;;;;;;;;;5031813;28;20026;-62
2023/06/07 08:22:53;;;;;;;14.60;11.20;;;;;;;;;;5023052;28;20045;-60
2023/06/07 08:25:18;;;;;;;12.27;10.43;;;;;;;;;;5027733;28;20603;-62
2023/06/07 08:27:43;;;;;;;14.82;9.63;;;;;;;;;;5024992;28;20028;-62
2023/06/07 08:30:09;;;;;;;12.95;10.82;;;;;;;;;;5028439;28;20048;-63
2023/06/07 08:32:34;;;;;;;13.93;10.57;;;;;;;;;;5030545;28;20025;-62
2023/06/07 08:34:59;;;;;;;13.60;11.02;;;;;;;;;;5026202;28;20875;-62
2023/06/07 08:37:25;;;;;;;11.85;10.15;;;;;;;;;;5025928;28;20069;-62
2023/06/07 08:39:50;;;;;;;14.97;10.60;;;;;;;;;;5023648;28;20785;-60
2023/06/07 08:42:15;;;;;;;13.02;10.75;;;;;;;;;;5019317;28;20463;-62
2023/06/07 08:44:40;;;;;;;13.90;10.07;;;;;;;;;;5021545;28;20029;-63
2023/06/07 08:47:06;;;;;;;12.97;9.67;;;;;;;;;;5032486;28;20108;-62
2023/06/07 08:49:33;;;;;;;15.60;10.57;;;;;;;;;;5026607;28;20105;-62
2023/06/07 08:52:00;;;;;;;13.43;10.57;;;;;;;;;;5021669;28;20075;-62
2023/06/07 08:54:26;;;;;;;13.05;9.77;;;;;;;;;;5025001;28;20029;-62
2023/06/07 08:56:53;;;;;;;12.18;9.18;;;;;;;;;;5032474;28;20025;-62
2023/06/07 08:59:19;;;;;;;13.60;10.70;;;;;;;;;;5022197;28;20492;-62
2023/06/07 09:01:44;;;;;;;17.42;10.70;;;;;;;;;;5023076;28;20052;-62
2023/06/07 09:04:10;;;;;;;15.47;11.50;;;;;;;;;;5023900;28;20655;-61
2023/06/07 09:06:35;;;;;;;15.27;10.30;;;;;;;;;;5028700;28;20025;-62
2023/06/07 09:09:03;;;;;;;13.57;10.18;;;;;;;;;;5026312;28;20472;-62
2023/06/07 09:11:28;;;;;;;12.68;10.57;;;;;;;;;;5031332;28;20104;-60
2023/06/07 09:13:56;;;;;;;13.37;10.47;;;;;;;;;;5021900;28;20113;-62
2023/06/07 09:16:21;;;;;;;12.63;9.18;;;;;;;;;;5030884;28;20017;-62
2023/06/07 09:18:53;;;;;;;13.17;9.43;;;;;;;;;;5028108;28;20018;-62
2023/06/07 09:21:26;;;;;;;15.43;11.85;;;;;;;;;;5031867;28;20353;-62
2023/06/07 09:23:52;;;;;;;15.25;11.13;;;;;;;;;;5022676;28;20030;-62
2023/06/07 09:26:17;;;;;;;13.30;10.02;;;;;;;;;;5022910;28;20354;-62
2023/06/07 09:28:45;;;;;;;12.95;10.82;;;;;;;;;;5029576;28;20037;-63
2023/06/07 09:31:11;;;;;;;13.25;9.52;;;;;;;;;;5022000;28;20230;-62
2023/06/07 09:33:36;;;;;;;13.68;10.77;;;;;;;;;;5028394;28;20128;-62
2023/06/07 09:36:11;;;;;;;15.73;11.70;;;;;;;;;;5024159;28;20013;-62
2023/06/07 09:38:36;;;;;;;14.27;10.20;;;;;;;;;;5026082;28;20446;-61
2023/06/07 09:41:03;;;;;;;13.77;12.03;;;;;;;;;;5029172;28;20053;-61
2023/06/07 09:43:40;;;;;;;12.48;9.45;;;;;;;;;;5030574;28;20047;-61
2023/06/07 09:46:05;;;;;;;14.57;10.57;;;;;;;;;;5026341;28;20070;-61
2023/06/07 09:48:30;;;;;;;15.25;8.95;;;;;;;;;;5021351;28;20037;-62
2023/06/07 09:50:59;;;;;;;11.13;8.47;;;;;;;;;;5030788;28;20026;-63
2023/06/07 09:53:24;;;;;;;13.30;9.18;;;;;;;;;;5029949;28;20022;-62
2023/06/07 09:55:49;;;;;;;12.43;9.32;;;;;;;;;;5025808;28;20378;-62
2023/06/07 09:58:22;;;;;;;13.50;9.93;;;;;;;;;;5031408;28;20499;-62
2023/06/07 10:00:47;;;;;;;13.13;9.70;;;;;;;;;;5025578;28;20092;-62
2023/06/07 10:03:13;;;;;;;14.50;10.18;;;;;;;;;;5030530;28;20053;-62
2023/06/07 10:05:39;;;;;;;14.27;10.50;;;;;;;;;;5025552;28;20022;-62
2023/06/07 10:08:05;;;;;;;12.57;10.18;;;;;;;;;;5027270;28;20022;-62
2023/06/07 10:10:32;;;;;;;12.60;10.38;;;;;;;;;;5021654;28;20021;-62
2023/06/07 10:12:58;;;;;;;12.45;9.15;;;;;;;;;;5022300;28;20017;-62
2023/06/07 10:15:24;;;;;;;13.07;9.77;;;;;;;;;;5025732;28;20504;-62
2023/06/07 10:17:55;;;;;;;11.30;9.00;;;;;;;;;;5028977;28;20017;-61
2023/06/07 10:20:27;;;;;;;11.63;9.13;;;;;;;;;;5027441;28;20033;-62
2023/06/07 10:23:00;;;;;;;10.73;8.00;;;;;;;;;;5031227;28;20040;-61
2023/06/07 10:25:28;;;;;;;11.27;8.23;;;;;;;;;;5026847;28;20021;-61
2023/06/07 10:28:11;;;;;;;12.93;9.20;;;;;;;;;;5019724;28;20025;-62
2023/06/07 10:30:38;;;;;;;9.90;7.47;;;;;;;;;;5027393;28;20021;-61
2023/06/07 10:33:04;;;;;;;10.65;8.15;;;;;;;;;;5022895;28;20448;-61
2023/06/07 10:35:30;;;;;;;9.38;7.38;;;;;;;;;;5023117;28;20030;-60
2023/06/07 10:37:55;;;;;;;9.75;7.50;;;;;;;;;;5026802;28;20014;-61
2023/06/07 10:40:20;;;;;;;;;;;;;;;;;;5022020;28;20025;-61
2023/06/07 10:42:46;;;;;;;11.18;7.82;;;;;;;;;;5029045;28;19987;-61
2023/06/07 10:45:15;;;;;;;10.93;8.32;;;;;;;;;;5014418;28;20041;-60
2023/06/07 10:47:44;;;;;;;11.90;7.95;;;;;;;;;;5027126;28;20029;-60
2023/06/07 10:50:32;;;;;;;10.02;7.05;;;;;;;;;;5024287;28;20056;-61
2023/06/07 10:52:58;;;;;;;12.43;6.97;;;;;;;;;;5020798;28;20032;-61
2023/06/07 10:55:27;;;;;;;11.05;7.13;;;;;;;;;;5015668;28;20022;-61
2023/06/07 10:57:53;;;;;;;10.10;7.75;;;;;;;;;;5029971;28;20046;-61
2023/06/07 11:00:31;;;;;;;10.00;7.50;;;;;;;;;;5025188;28;20025;-61
2023/06/07 11:03:05;;;;;;;10.00;7.35;;;;;;;;;;5029678;28;20017;-61
2023/06/07 11:05:50;;;;;;;9.20;6.82;;;;;;;;;;5024296;28;20067;-61
2023/06/07 11:08:23;;;;;;;8.18;6.30;;;;;;;;;;5020599;28;20497;-61
2023/06/07 11:10:49;;;;;;;10.27;7.28;;;;;;;;;;5024992;28;20060;-61
2023/06/07 11:13:14;;;;;;;10.27;6.80;;;;;;;;;;5029146;28;20045;-61
2023/06/07 11:15:40;;;;;;;10.57;6.88;;;;;;;;;;5028079;28;20288;-62
2023/06/07 11:18:07;;;;;;;;;;;;;;;;;;5026232;28;20040;-61
2023/06/07 11:20:35;;;;;;;11.75;7.15;;;;;;;;;;5022462;28;19955;-62
2023/06/07 11:23:41;;;;;;;10.05;7.22;;;;;;;;;;5028186;28;20029;-63
2023/06/07 11:26:10;;;;;;;9.27;6.78;;;;;;;;;;5007216;28;20521;-62
2023/06/07 11:28:40;;;;;;;11.02;6.30;;;;;;;;;;5001267;28;20109;-62
2023/06/07 11:31:09;;;;;;;9.75;6.85;;;;;;;;;;5016479;28;20056;-62
2023/06/07 11:33:34;;;;;;;11.13;6.50;;;;;;;;;;5029594;28;20108;-62
2023/06/07 11:36:00;;;;;;;11.57;6.13;;;;;;;;;;5018010;28;20457;-62
2023/06/07 11:38:28;;;;;;;7.95;5.78;;;;;;;;;;5025847;28;20105;-62
2023/06/07 11:40:53;;;;;;;8.70;5.28;;;;;;;;;;5028162;28;20028;-63
2023/06/07 11:43:29;;;;;;;8.70;5.78;;;;;;;;;;5029307;28;20092;-63
2023/06/07 11:45:55;;;;;;;8.93;5.50;;;;;;;;;;5028554;28;20030;-63
2023/06/07 11:48:20;;;;;;;8.45;5.93;;;;;;;;;;5029430;28;20819;-62
2023/06/07 11:50:47;;;;;;;8.60;6.10;;;;;;;;;;5028736;28;20120;-62
2023/06/07 11:53:13;;;;;;;8.63;5.90;;;;;;;;;;5028118;28;20100;-62
2023/06/07 11:55:38;;;;;;;7.95;5.90;;;;;;;;;;5028973;28;20481;-63
2023/06/07 11:58:03;;;;;;;;;;;;;;;;;;5022572;28;20021;-60
2023/06/07 12:00:32;;;;;;;8.40;5.87;;;;;;;;;;5019969;28;20273;-61
2023/06/07 12:02:58;;;;;;;8.75;6.28;;;;;;;;;;5025155;28;20032;-61
2023/06/07 12:05:30;;;;;;;9.20;5.55;;;;;;;;;;5032252;28;20021;-61
2023/06/07 12:07:55;;;;;;;;;;;;;;;;;;5025187;28;20109;-61
2023/06/07 12:10:24;;;;;;;10.15;6.20;;;;;;;;;;5022803;28;19992;-62
2023/06/07 12:13:06;;;;;;;10.30;6.20;;;;;;;;;;5031059;28;20017;-61
2023/06/07 12:15:32;;;;;;;9.18;5.80;;;;;;;;;;5029476;28;20478;-61
2023/06/07 12:17:58;;;;;;;9.32;5.82;;;;;;;;;;5022506;28;20010;-61
2023/06/07 12:20:23;;;;;;;8.55;5.85;;;;;;;;;;5026679;28;20025;-61
2023/06/07 12:22:48;;;;;;;8.80;6.03;;;;;;;;;;5031056;28;20044;-61
2023/06/07 12:25:15;;;;;;;;;;;;;;;;;;5032537;28;20037;-61
2023/06/07 12:27:47;;;;;;;9.38;5.82;;;;;;;;;;5029523;28;19909;-61
2023/06/07 12:30:12;;;;;;;10.05;6.13;;;;;;;;;;5022221;28;20021;-61
2023/06/07 12:32:37;;;;;;;;;;;;;;;;;;5030168;28;20539;-62
2023/06/07 12:35:05;;;;;;;9.70;6.20;;;;;;;;;;5019913;28;19913;-61
2023/06/07 12:37:35;;;;;;;10.23;6.15;;;;;;;;;;5026026;28;20100;-61
2023/06/07 12:40:00;;;;;;;8.65;5.70;;;;;;;;;;5023052;28;20460;-61
2023/06/07 12:42:26;;;;;;;;;;;;;;;;;;5023647;28;20010;-61
2023/06/07 12:44:54;;;;;;;9.43;5.78;;;;;;;;;;5025113;28;19944;-61
2023/06/07 12:47:20;;;;;;;8.57;5.47;;;;;;;;;;5030634;28;20064;-62
2023/06/07 12:49:45;;;;;;;8.00;5.70;;;;;;;;;;5019411;28;20026;-61
2023/06/07 12:52:10;;;;;;;;;;;;;;;;;;5026622;28;20097;-62
2023/06/07 12:54:35;;;;;;;7.03;5.40;;;;;;;;;;5024461;28;19913;-63
2023/06/07 12:57:01;;;;;;;7.75;5.80;;;;;;;;;;5031537;28;20041;-61
2023/06/07 12:59:27;;;;;;;;;;;;;;;;;;5031103;28;20018;-62
2023/06/07 13:01:52;;;;;;;8.18;5.03;;;;;;;;;;5031630;28;19996;-61
2023/06/07 13:04:17;;;;;;;;;;;;;;;;;;5025863;28;20025;-61
2023/06/07 13:06:43;;;;;;;7.85;5.03;;;;;;;;;;5021495;28;20293;-62
2023/06/07 13:09:08;;;;;;;8.52;5.30;;;;;;;;;;5013397;28;20029;-62
2023/06/07 13:11:34;;;;;;;9.90;6.07;;;;;;;;;;5030947;28;20021;-62
2023/06/07 13:13:59;;;;;;;;;;;;;;;;;;5032853;28;20017;-62
2023/06/07 13:16:24;;;;;;;8.85;5.43;;;;;;;;;;5026967;28;19909;-62
2023/06/07 13:18:49;;;;;;;;;;;;;;;;;;5030985;28;20108;-61
2023/06/07 13:21:15;;;;;;;7.70;5.50;;;;;;;;;;5029768;28;19909;-60
2023/06/07 13:23:40;;;;;;;;;;;;;;;;;;5019106;28;20065;-61
2023/06/07 13:26:05;;;;;;;7.40;5.27;;;;;;;;;;5024820;28;20038;-62
2023/06/07 13:28:31;;;;;;;8.97;5.27;;;;;;;;;;5030661;28;20459;-62
2023/06/07 13:30:56;;;;;;;;;;;;;;;;;;5019775;28;20041;-62
2023/06/07 13:33:21;;;;;;;8.65;5.43;;;;;;;;;;5030520;28;19913;-63
2023/06/07 13:35:46;;;;;;;;;;;;;;;;;;5028547;28;20036;-60
2023/06/07 13:38:11;;;;;;;7.82;5.63;;;;;;;;;;5028681;28;19913;-61
2023/06/07 13:40:37;;;;;;;8.30;5.50;;;;;;;;;;5017706;28;20029;-61
2023/06/07 13:43:02;;;;;;;;;;;;;;;;;;5031058;28;20025;-61
2023/06/07 13:45:27;;;;;;;7.20;5.22;;;;;;;;;;5029722;28;19912;-61
2023/06/07 13:47:52;;;;;;;;;;;;;;;;;;5030873;28;20021;-61
2023/06/07 13:50:17;;;;;;;7.07;5.13;;;;;;;;;;5028506;28;19916;-61
2023/06/07 13:52:42;;;;;;;;;;;;;;;;;;5028674;28;20108;-60
2023/06/07 13:55:08;;;;;;;7.15;4.50;;;;;;;;;;5031651;28;19905;-61
2023/06/07 13:57:35;;;;;;;;;;;;;;;;;;5023145;28;20029;-61
2023/06/07 14:00:00;;;;;;;7.85;5.10;;;;;;;;;;5026322;28;19936;-61
2023/06/07 14:02:26;;;;;;;8.25;5.03;;;;;;;;;;5028068;28;20026;-61
2023/06/07 14:04:51;;;;;;;9.03;4.93;;;;;;;;;;5029957;28;20025;-61
2023/06/07 14:07:16;;;;;;;8.85;5.78;;;;;;;;;;5031147;28;20480;-61
2023/06/07 14:09:41;;;;;;;7.93;5.33;;;;;;;;;;5029470;28;20021;-61
2023/06/07 14:12:08;;;;;;;8.37;5.30;;;;;;;;;;5030915;28;20013;-61
2023/06/07 14:14:33;;;;;;;8.18;5.45;;;;;;;;;;5029299;28;20396;-61
2023/06/07 14:16:59;;;;;;;8.30;5.57;;;;;;;;;;5031404;28;20109;-61
2023/06/07 14:19:24;;;;;;;;;;;;;;;;;;5032567;28;20020;-62
2023/06/07 14:21:49;;;;;;;7.85;5.22;;;;;;;;;;5031349;28;19985;-62
2023/06/07 14:24:14;;;;;;;;;;;;;;;;;;5031247;28;20539;-61
2023/06/07 14:26:39;;;;;;;8.27;4.82;;;;;;;;;;5031639;28;19909;-63
2023/06/07 14:29:04;;;;;;;;;;;;;;;;;;5034408;28;20010;-62